Terminal Aerodrome Forecast
Issued by NWS

Home | Current Version | Previous Version | Graphics & Text | Print | Product List | Glossary Off
Versions: 1 2 3 4 5 6 7 8 9 10 11 12 13 14 15 16 17 18 19 20 21 22 23 24 25 26 27 28 29 30 31 32 33 34 35 36 37

000
FTUS43 KDDC 181120
TAFGCK
TAF
KGCK 181120Z 1812/1912 18016KT P6SM SCT250 WS020/21055KT
     FM181600 20025G35KT P6SM FEW250
     FM190000 19018KT P6SM FEW250
     FM190200 20017G25KT P6SM FEW250 WS020/22045KT
     FM191100 25012KT P6SM FEW250 WS012/25025KT=

USA.gov is the U.S. government's official web portal to all federal, state and local government web resources and services.